createdAt,value
2022-10-22T00:00:03.276Z,100.00
2022-10-22T00:04:07.194Z,100.00
2022-10-22T00:08:09.120Z,100.00
2022-10-22T00:12:11.644Z,100.00
2022-10-22T00:16:13.889Z,100.00
2022-10-22T00:20:16.763Z,100.00
2022-10-22T00:24:18.876Z,100.00
2022-10-22T00:28:21.031Z,100.00
2022-10-22T00:32:23.167Z,100.00
2022-10-22T00:36:25.084Z,100.00
2022-10-22T00:40:27.022Z,100.00
2022-10-22T00:45:03.258Z,100.00
2022-10-22T00:49:05.993Z,100.00
2022-10-22T00:53:24.916Z,100.00
2022-10-22T00:57:27.820Z,100.00
2022-10-22T01:01:32.241Z,100.00
2022-10-22T01:05:42.814Z,100.00
2022-10-22T01:10:20.384Z,100.00
2022-10-22T01:14:45.718Z,100.00
2022-10-22T01:19:14.447Z,100.00
2022-10-22T01:23:35.270Z,100.00
2022-10-22T01:28:01.679Z,100.00
2022-10-22T01:32:16.427Z,100.00
2022-10-22T01:36:19.940Z,100.00
2022-10-22T01:40:23.939Z,100.00
2022-10-22T01:48:46.008Z,100.00
2022-10-22T01:53:23.840Z,100.00
2022-10-22T01:57:58.076Z,100.00
2022-10-22T02:02:06.016Z,100.00
2022-10-22T02:06:17.698Z,100.00
2022-10-22T02:10:20.122Z,100.00
2022-10-22T02:14:23.299Z,100.00
2022-10-22T02:18:30.251Z,100.00
2022-10-22T02:22:32.866Z,100.00
2022-10-22T02:26:43.554Z,100.00
2022-10-22T02:30:52.064Z,100.00
2022-10-22T02:34:56.786Z,100.00
2022-10-22T02:39:00.126Z,100.00
2022-10-22T02:43:04.724Z,100.00
2022-10-22T02:47:06.765Z,100.00
2022-10-22T02:51:09.194Z,100.00
2022-10-22T02:55:11.175Z,100.00
2022-10-22T02:59:13.153Z,100.00
2022-10-22T03:03:15.132Z,100.00
2022-10-22T03:07:17.083Z,100.00
2022-10-22T03:11:19.244Z,100.00
2022-10-22T03:15:21.536Z,100.00
2022-10-22T03:19:23.484Z,100.00
2022-10-22T03:23:25.949Z,100.00
2022-10-22T03:27:29.463Z,100.00
2022-10-22T03:31:31.771Z,100.00
2022-10-22T03:35:42.459Z,100.00
2022-10-22T03:39:45.164Z,100.00
2022-10-22T03:43:51.489Z,100.00
2022-10-22T03:47:53.425Z,100.00
2022-10-22T03:51:55.302Z,100.00
2022-10-22T03:55:57.227Z,100.00
2022-10-22T03:59:59.143Z,100.00
2022-10-22T04:04:01.240Z,100.00
2022-10-22T04:08:03.292Z,100.00
2022-10-22T04:12:07.941Z,100.00
2022-10-22T04:16:12.401Z,100.00
2022-10-22T04:20:17.356Z,100.00
2022-10-22T04:24:21.462Z,100.00
2022-10-22T04:28:23.545Z,100.00
2022-10-22T04:32:26.917Z,100.00
2022-10-22T04:36:29.459Z,100.00
2022-10-22T04:40:31.451Z,100.00
2022-10-22T04:44:33.728Z,100.00
2022-10-22T04:48:37.377Z,100.00
2022-10-22T04:52:39.708Z,100.00
2022-10-22T04:56:41.707Z,100.00
2022-10-22T05:00:43.725Z,100.00
2022-10-22T05:04:45.688Z,100.00
2022-10-22T05:08:48.710Z,100.00
2022-10-22T05:12:51.100Z,100.00
2022-10-22T05:16:53.445Z,100.00
2022-10-22T05:20:55.397Z,100.00
2022-10-22T05:24:57.578Z,100.00
2022-10-22T05:28:59.585Z,100.00
2022-10-22T05:33:01.576Z,100.00
2022-10-22T05:37:03.810Z,100.00
2022-10-22T05:41:09.080Z,100.00
2022-10-22T05:45:12.977Z,100.00
2022-10-22T05:49:16.239Z,100.00
2022-10-22T05:53:18.699Z,100.00
2022-10-22T05:57:20.699Z,100.00
2022-10-22T06:01:25.908Z,100.00
2022-10-22T06:05:27.930Z,100.00
2022-10-22T06:09:35.368Z,100.00
2022-10-22T06:13:37.424Z,100.00
2022-10-22T06:17:39.990Z,100.00
2022-10-22T06:21:42.799Z,100.00
2022-10-22T06:25:45.197Z,100.00
2022-10-22T06:29:48.527Z,100.00
2022-10-22T06:33:50.488Z,100.00
2022-10-22T06:37:52.478Z,100.00
2022-10-22T06:41:54.408Z,100.00
2022-10-22T06:46:00.833Z,100.00
2022-10-22T06:50:02.842Z,100.00
2022-10-22T06:54:04.862Z,100.00
2022-10-22T06:58:07.027Z,100.00
2022-10-22T07:02:10.479Z,100.00
2022-10-22T07:06:14.221Z,100.00
2022-10-22T07:10:16.244Z,100.00
2022-10-22T07:14:18.442Z,100.00
2022-10-22T07:18:20.668Z,100.00
2022-10-22T07:22:22.607Z,100.00
2022-10-22T07:26:25.721Z,100.00
2022-10-22T07:30:27.744Z,100.00
2022-10-22T07:34:29.773Z,100.00
2022-10-22T07:38:46.018Z,100.00
2022-10-22T07:42:47.934Z,100.00
2022-10-22T07:46:50.293Z,100.00
2022-10-22T07:50:52.280Z,100.00
2022-10-22T07:54:54.212Z,100.00
2022-10-22T07:58:56.292Z,100.00
2022-10-22T08:02:58.364Z,100.00
2022-10-22T08:07:01.442Z,100.00
2022-10-22T08:11:03.619Z,100.00
2022-10-22T08:15:08.132Z,100.00
2022-10-22T08:19:10.063Z,100.00
2022-10-22T08:23:11.999Z,100.00
2022-10-22T08:27:14.097Z,100.00
2022-10-22T08:31:16.079Z,100.00
2022-10-22T08:35:18.094Z,100.00
2022-10-22T08:39:20.057Z,100.00
2022-10-22T08:43:32.573Z,100.00
2022-10-22T08:48:15.482Z,100.00
2022-10-22T08:52:19.936Z,100.00
2022-10-22T08:56:23.912Z,100.00
2022-10-22T09:00:36.678Z,100.00
2022-10-22T09:05:02.350Z,100.00
2022-10-22T09:09:11.916Z,100.00
2022-10-22T09:13:18.340Z,100.00
2022-10-22T09:17:38.775Z,100.00
2022-10-22T09:21:56.786Z,100.00
2022-10-22T09:25:59.816Z,100.00
2022-10-22T09:30:02.264Z,100.00
2022-10-22T09:34:07.553Z,100.00
2022-10-22T09:38:09.589Z,100.00
2022-10-22T09:42:16.289Z,100.00
2022-10-22T09:46:21.391Z,100.00
2022-10-22T09:50:41.100Z,100.00
2022-10-22T09:54:43.158Z,100.00
2022-10-22T09:58:49.402Z,100.00
2022-10-22T10:02:58.594Z,100.00
2022-10-22T10:07:00.627Z,100.00
2022-10-22T10:11:36.519Z,100.00
2022-10-22T10:15:51.867Z,100.00
2022-10-22T10:20:31.746Z,100.00
2022-10-22T10:24:56.073Z,100.00
2022-10-22T10:29:38.997Z,100.00
2022-10-22T10:34:03.035Z,100.00
2022-10-22T10:38:34.363Z,100.00
2022-10-22T10:42:39.878Z,100.00
2022-10-22T10:46:55.475Z,100.00
2022-10-22T10:51:47.546Z,100.00
2022-10-22T10:56:01.921Z,100.00
2022-10-22T11:00:11.915Z,100.00
2022-10-22T11:04:34.562Z,100.00
2022-10-22T11:08:43.574Z,100.00
2022-10-22T11:12:51.484Z,100.00
2022-10-22T11:17:06.047Z,100.00
2022-10-22T11:21:39.880Z,100.00
2022-10-22T11:25:46.083Z,100.00
2022-10-22T11:29:54.167Z,100.00
2022-10-22T11:34:39.650Z,100.00
2022-10-22T11:38:41.698Z,100.00
2022-10-22T11:42:54.360Z,100.00
2022-10-22T11:47:15.682Z,100.00
2022-10-22T11:51:37.197Z,100.00
2022-10-22T11:55:55.789Z,100.00
2022-10-22T12:00:01.760Z,100.00
2022-10-22T12:04:39.514Z,100.00
2022-10-22T12:08:54.183Z,100.00
2022-10-22T12:12:58.738Z,100.00
2022-10-22T12:17:15.777Z,100.00
2022-10-22T12:21:17.778Z,100.00
2022-10-22T12:25:24.371Z,100.00
2022-10-22T12:29:28.124Z,100.00
2022-10-22T12:33:32.722Z,100.00
2022-10-22T12:37:38.681Z,100.00
2022-10-22T12:41:41.036Z,100.00
2022-10-22T12:45:46.001Z,100.00
2022-10-22T12:49:50.187Z,100.00
2022-10-22T12:53:55.279Z,100.00
2022-10-22T12:57:57.308Z,100.00
2022-10-22T13:01:59.828Z,100.00
2022-10-22T13:06:20.157Z,90.89
2022-10-22T13:10:33.784Z,89.42
2022-10-22T13:14:38.249Z,96.27
2022-10-22T13:18:40.910Z,96.04
2022-10-22T13:22:55.107Z,91.33
2022-10-22T13:26:57.546Z,96.44
2022-10-22T13:31:03.037Z,96.86
2022-10-22T13:35:05.478Z,97.05
2022-10-22T13:39:16.387Z,94.87
2022-10-22T13:43:19.447Z,95.50
2022-10-22T13:47:29.553Z,96.28
2022-10-22T13:51:35.642Z,95.83
2022-10-22T13:55:37.573Z,97.55
2022-10-22T13:59:39.687Z,97.86
2022-10-22T14:03:42.089Z,98.34
2022-10-22T14:07:44.600Z,98.78
2022-10-22T14:11:46.727Z,98.08
2022-10-22T14:15:51.585Z,96.66
2022-10-22T14:19:53.591Z,98.54
2022-10-22T14:23:55.538Z,98.59
2022-10-22T14:27:57.625Z,98.87
2022-10-22T14:31:59.588Z,99.98
2022-10-22T14:36:01.902Z,100.00
2022-10-22T14:40:04.447Z,100.00
2022-10-22T14:44:06.671Z,100.00
2022-10-22T14:48:08.648Z,100.00
2022-10-22T14:52:14.145Z,100.00
2022-10-22T14:56:21.289Z,100.00
2022-10-22T15:00:23.506Z,100.00
2022-10-22T15:04:27.223Z,100.00
2022-10-22T15:08:29.186Z,100.00
2022-10-22T15:12:31.369Z,100.00
2022-10-22T15:16:33.447Z,100.00
2022-10-22T15:20:35.440Z,100.00
2022-10-22T15:24:38.971Z,100.00
2022-10-22T15:28:41.610Z,100.00
2022-10-22T15:32:43.778Z,100.00
2022-10-22T15:36:45.898Z,100.00
2022-10-22T15:40:48.313Z,100.00
2022-10-22T15:44:58.518Z,100.00
2022-10-22T15:49:00.587Z,100.00
2022-10-22T15:53:02.726Z,100.00
2022-10-22T15:57:08.839Z,100.00
2022-10-22T16:01:13.183Z,100.00
2022-10-22T16:05:15.238Z,100.00
2022-10-22T16:09:20.238Z,100.00
2022-10-22T16:13:24.931Z,100.00
2022-10-22T16:17:26.893Z,100.00
2022-10-22T16:21:29.144Z,100.00
2022-10-22T16:25:31.526Z,100.00
2022-10-22T16:29:33.693Z,100.00
2022-10-22T16:33:41.614Z,100.00
2022-10-22T16:37:46.817Z,100.00
2022-10-22T16:41:48.863Z,100.00
2022-10-22T16:45:50.861Z,100.00
2022-10-22T16:49:53.049Z,100.00
2022-10-22T16:53:56.678Z,100.00
2022-10-22T16:57:58.929Z,100.00
2022-10-22T17:02:00.946Z,100.00
2022-10-22T17:06:04.582Z,100.00
2022-10-22T17:10:09.118Z,100.00
2022-10-22T17:14:11.291Z,100.00
2022-10-22T17:18:13.223Z,100.00
2022-10-22T17:22:17.718Z,100.00
2022-10-22T17:26:22.691Z,100.00
2022-10-22T17:30:27.238Z,100.00
2022-10-22T17:34:33.124Z,100.00
2022-10-22T17:38:35.918Z,100.00
2022-10-22T17:42:38.136Z,100.00
2022-10-22T17:46:40.126Z,100.00
2022-10-22T17:50:45.874Z,100.00
2022-10-22T17:54:53.240Z,100.00
2022-10-22T17:58:55.830Z,100.00
2022-10-22T18:02:59.885Z,100.00
2022-10-22T18:07:02.095Z,100.00
2022-10-22T18:11:12.140Z,100.00
2022-10-22T18:15:14.344Z,100.00
2022-10-22T18:19:19.487Z,100.00
2022-10-22T18:23:21.454Z,100.00
2022-10-22T18:27:23.454Z,100.00
2022-10-22T18:31:27.046Z,100.00
2022-10-22T18:35:32.368Z,100.00
2022-10-22T18:39:34.846Z,100.00
2022-10-22T18:43:37.432Z,100.00
2022-10-22T18:47:42.835Z,100.00
2022-10-22T18:51:46.612Z,100.00
2022-10-22T18:55:48.610Z,100.00
2022-10-22T18:59:50.695Z,100.00
2022-10-22T19:03:53.048Z,100.00
2022-10-22T19:07:55.017Z,100.00
2022-10-22T19:11:57.036Z,100.00
2022-10-22T19:16:03.720Z,100.00
2022-10-22T19:20:06.307Z,100.00
2022-10-22T19:24:08.601Z,100.00
2022-10-22T19:28:10.630Z,100.00
2022-10-22T19:32:13.111Z,100.00
2022-10-22T19:36:19.887Z,100.00
2022-10-22T19:40:25.760Z,100.00
2022-10-22T19:44:28.433Z,100.00
2022-10-22T19:48:30.438Z,100.00
2022-10-22T19:52:33.395Z,100.00
2022-10-22T19:56:37.611Z,100.00
2022-10-22T20:00:39.555Z,100.00
2022-10-22T20:04:41.808Z,100.00
2022-10-22T20:08:44.100Z,100.00
2022-10-22T20:12:46.131Z,100.00
2022-10-22T20:16:48.210Z,100.00
2022-10-22T20:20:50.424Z,100.00
2022-10-22T20:24:52.400Z,100.00
2022-10-22T20:28:56.613Z,100.00
2022-10-22T20:32:58.649Z,100.00
2022-10-22T20:37:00.569Z,100.00
2022-10-22T20:41:14.059Z,100.00
2022-10-22T20:45:16.391Z,100.00
2022-10-22T20:49:20.674Z,100.00
2022-10-22T20:53:22.989Z,100.00
2022-10-22T20:57:25.214Z,100.00
2022-10-22T21:01:28.530Z,100.00
2022-10-22T21:05:30.652Z,100.00
2022-10-22T21:09:34.954Z,100.00
2022-10-22T21:13:37.016Z,100.00
2022-10-22T21:17:40.335Z,100.00
2022-10-22T21:21:42.433Z,100.00
2022-10-22T21:25:56.408Z,100.00
2022-10-22T21:29:58.576Z,100.00
2022-10-22T21:34:01.049Z,100.00
2022-10-22T21:38:03.592Z,100.00
2022-10-22T21:42:05.755Z,100.00
2022-10-22T21:46:10.814Z,100.00
2022-10-22T21:50:12.818Z,100.00
2022-10-22T21:54:14.836Z,100.00
2022-10-22T21:58:16.869Z,100.00
2022-10-22T22:02:18.818Z,100.00
2022-10-22T22:06:24.132Z,100.00
2022-10-22T22:10:26.691Z,100.00
2022-10-22T22:14:28.674Z,100.00
2022-10-22T22:18:31.487Z,100.00
2022-10-22T22:22:33.518Z,100.00
2022-10-22T22:26:36.200Z,100.00
2022-10-22T22:30:38.171Z,100.00
2022-10-22T22:34:41.460Z,100.00
2022-10-22T22:38:43.379Z,100.00
2022-10-22T22:42:45.315Z,100.00
2022-10-22T22:46:47.286Z,100.00
2022-10-22T22:50:49.621Z,100.00
2022-10-22T22:54:51.601Z,100.00
2022-10-22T22:58:54.760Z,100.00
2022-10-22T23:02:56.830Z,100.00
2022-10-22T23:06:59.031Z,100.00
2022-10-22T23:11:10.117Z,100.00
2022-10-22T23:15:12.059Z,100.00
2022-10-22T23:19:16.893Z,100.00
2022-10-22T23:23:19.754Z,100.00
2022-10-22T23:27:22.070Z,100.00
2022-10-22T23:31:24.130Z,100.00
2022-10-22T23:35:26.317Z,100.00
2022-10-22T23:39:29.351Z,100.00
2022-10-22T23:43:32.323Z,100.00
2022-10-22T23:47:34.832Z,100.00
2022-10-22T23:51:38.093Z,100.00
2022-10-22T23:55:42.868Z,100.00
2022-10-22T23:59:45.008Z,100.00
